sensor_id;sensor_type;location;lat;lon;timestamp;pressure;altitude;pressure_sealevel;temperature;humidity
59073;BME280;44859;51.934;15.554;2023-02-05T00:00:32;101980.89;;;-4.10;80.92
59073;BME280;44859;51.934;15.554;2023-02-05T00:03:28;101974.25;;;-4.09;80.69
59073;BME280;44859;51.934;15.554;2023-02-05T00:06:28;101973.08;;;-4.08;80.92
59073;BME280;44859;51.934;15.554;2023-02-05T00:09:11;101973.17;;;-4.06;80.71
59073;BME280;44859;51.934;15.554;2023-02-05T00:11:43;101963.66;;;-4.04;81.01
59073;BME280;44859;51.934;15.554;2023-02-05T00:14:12;101965.45;;;-4.02;80.84
59073;BME280;44859;51.934;15.554;2023-02-05T00:16:47;101959.64;;;-4.02;81.05
59073;BME280;44859;51.934;15.554;2023-02-05T00:19:24;101959.29;;;-4.02;80.75
59073;BME280;44859;51.934;15.554;2023-02-05T00:21:58;101961.73;;;-4.01;80.69
59073;BME280;44859;51.934;15.554;2023-02-05T00:24:38;101955.94;;;-4.00;80.84
59073;BME280;44859;51.934;15.554;2023-02-05T00:27:07;101953.27;;;-3.98;80.99
59073;BME280;44859;51.934;15.554;2023-02-05T00:29:43;101944.78;;;-4.00;80.99
59073;BME280;44859;51.934;15.554;2023-02-05T00:32:12;101948.90;;;-4.00;81.03
59073;BME280;44859;51.934;15.554;2023-02-05T00:34:40;101951.24;;;-3.98;80.77
59073;BME280;44859;51.934;15.554;2023-02-05T00:37:13;101947.42;;;-3.94;81.08
59073;BME280;44859;51.934;15.554;2023-02-05T00:39:42;101947.80;;;-3.94;81.07
59073;BME280;44859;51.934;15.554;2023-02-05T00:42:11;101946.95;;;-3.93;81.29
59073;BME280;44859;51.934;15.554;2023-02-05T00:44:40;101948.13;;;-3.94;81.20
59073;BME280;44859;51.934;15.554;2023-02-05T00:47:09;101946.21;;;-3.95;81.05
59073;BME280;44859;51.934;15.554;2023-02-05T00:49:40;101945.02;;;-3.99;81.32
59073;BME280;44859;51.934;15.554;2023-02-05T00:52:09;101942.56;;;-4.00;81.42
59073;BME280;44859;51.934;15.554;2023-02-05T00:54:38;101941.22;;;-4.00;81.28
59073;BME280;44859;51.934;15.554;2023-02-05T00:57:07;101942.45;;;-3.99;81.28
59073;BME280;44859;51.934;15.554;2023-02-05T00:59:37;101944.95;;;-3.97;81.32
59073;BME280;44859;51.934;15.554;2023-02-05T01:02:07;101949.50;;;-3.94;81.49
59073;BME280;44859;51.934;15.554;2023-02-05T01:04:36;101948.77;;;-3.95;81.41
59073;BME280;44859;51.934;15.554;2023-02-05T01:07:09;101946.09;;;-3.98;81.23
59073;BME280;44859;51.934;15.554;2023-02-05T01:09:41;101943.45;;;-4.03;81.37
59073;BME280;44859;51.934;15.554;2023-02-05T01:12:10;101946.45;;;-4.08;81.31
59073;BME280;44859;51.934;15.554;2023-02-05T01:14:43;101940.00;;;-4.15;81.41
59073;BME280;44859;51.934;15.554;2023-02-05T01:17:12;101939.10;;;-4.19;81.46
59073;BME280;44859;51.934;15.554;2023-02-05T01:19:50;101933.32;;;-4.26;81.39
59073;BME280;44859;51.934;15.554;2023-02-05T01:22:26;101942.70;;;-4.31;81.40
59073;BME280;44859;51.934;15.554;2023-02-05T01:25:02;101941.92;;;-4.37;81.64
59073;BME280;44859;51.934;15.554;2023-02-05T01:27:56;101936.94;;;-4.40;81.89
59073;BME280;44859;51.934;15.554;2023-02-05T01:30:27;101940.95;;;-4.43;81.59
59073;BME280;44859;51.934;15.554;2023-02-05T01:32:56;101941.17;;;-4.45;81.75
59073;BME280;44859;51.934;15.554;2023-02-05T01:35:28;101935.52;;;-4.49;82.12
59073;BME280;44859;51.934;15.554;2023-02-05T01:37:56;101938.69;;;-4.51;81.91
59073;BME280;44859;51.934;15.554;2023-02-05T01:40:27;101943.77;;;-4.52;82.22
59073;BME280;44859;51.934;15.554;2023-02-05T01:42:58;101942.93;;;-4.55;82.05
59073;BME280;44859;51.934;15.554;2023-02-05T01:45:49;101943.66;;;-4.58;82.14
59073;BME280;44859;51.934;15.554;2023-02-05T01:48:43;101943.34;;;-4.61;82.51
59073;BME280;44859;51.934;15.554;2023-02-05T01:51:29;101943.75;;;-4.63;82.02
59073;BME280;44859;51.934;15.554;2023-02-05T01:54:07;101943.70;;;-4.68;82.78
59073;BME280;44859;51.934;15.554;2023-02-05T01:56:40;101938.54;;;-4.72;82.53
59073;BME280;44859;51.934;15.554;2023-02-05T01:59:24;101937.99;;;-4.73;82.76
59073;BME280;44859;51.934;15.554;2023-02-05T02:02:01;101935.44;;;-4.76;82.70
59073;BME280;44859;51.934;15.554;2023-02-05T02:04:51;101933.89;;;-4.80;82.44
59073;BME280;44859;51.934;15.554;2023-02-05T02:07:23;101926.23;;;-4.82;83.08
59073;BME280;44859;51.934;15.554;2023-02-05T02:09:55;101914.96;;;-4.85;82.93
59073;BME280;44859;51.934;15.554;2023-02-05T02:12:34;101909.71;;;-4.87;82.83
59073;BME280;44859;51.934;15.554;2023-02-05T02:15:20;101906.31;;;-4.90;83.36
59073;BME280;44859;51.934;15.554;2023-02-05T02:18:03;101901.14;;;-4.94;83.10
59073;BME280;44859;51.934;15.554;2023-02-05T02:30:00;101904.08;;;-5.01;83.89
59073;BME280;44859;51.934;15.554;2023-02-05T02:32:48;101907.70;;;-5.03;83.65
59073;BME280;44859;51.934;15.554;2023-02-05T02:35:41;101907.83;;;-5.05;84.00
59073;BME280;44859;51.934;15.554;2023-02-05T02:41:41;101907.25;;;-5.06;83.76
59073;BME280;44859;51.934;15.554;2023-02-05T02:44:43;101910.75;;;-5.09;83.75
59073;BME280;44859;51.934;15.554;2023-02-05T02:47:45;101913.27;;;-5.09;84.00
59073;BME280;44859;51.934;15.554;2023-02-05T02:50:49;101911.05;;;-5.09;84.30
59073;BME280;44859;51.934;15.554;2023-02-05T02:53:34;101907.68;;;-5.12;84.17
59073;BME280;44859;51.934;15.554;2023-02-05T02:56:16;101906.48;;;-5.11;84.33
59073;BME280;44859;51.934;15.554;2023-02-05T02:59:04;101905.56;;;-5.13;84.48
59073;BME280;44859;51.934;15.554;2023-02-05T03:01:44;101901.88;;;-5.11;84.65
59073;BME280;44859;51.934;15.554;2023-02-05T03:04:29;101897.13;;;-5.10;84.50
59073;BME280;44859;51.934;15.554;2023-02-05T03:07:31;101892.33;;;-5.10;84.45
59073;BME280;44859;51.934;15.554;2023-02-05T03:10:28;101892.38;;;-5.12;84.63
59073;BME280;44859;51.934;15.554;2023-02-05T03:13:03;101895.58;;;-5.14;85.13
59073;BME280;44859;51.934;15.554;2023-02-05T03:15:39;101903.34;;;-5.16;84.76
59073;BME280;44859;51.934;15.554;2023-02-05T03:18:17;101908.65;;;-5.19;84.87
59073;BME280;44859;51.934;15.554;2023-02-05T03:21:01;101908.75;;;-5.25;84.84
59073;BME280;44859;51.934;15.554;2023-02-05T03:23:32;101909.98;;;-5.27;85.09
59073;BME280;44859;51.934;15.554;2023-02-05T03:26:36;101913.10;;;-5.30;85.19
59073;BME280;44859;51.934;15.554;2023-02-05T03:29:25;101909.29;;;-5.34;85.46
59073;BME280;44859;51.934;15.554;2023-02-05T03:41:03;101907.70;;;-5.53;85.75
59073;BME280;44859;51.934;15.554;2023-02-05T03:44:05;101914.38;;;-5.53;85.65
59073;BME280;44859;51.934;15.554;2023-02-05T03:46:46;101913.21;;;-5.55;86.05
59073;BME280;44859;51.934;15.554;2023-02-05T03:50:07;101909.70;;;-5.60;85.69
59073;BME280;44859;51.934;15.554;2023-02-05T03:56:00;101911.96;;;-5.73;85.80
59073;BME280;44859;51.934;15.554;2023-02-05T03:58:47;101919.98;;;-5.81;86.21
59073;BME280;44859;51.934;15.554;2023-02-05T04:01:19;101926.42;;;-5.85;85.97
59073;BME280;44859;51.934;15.554;2023-02-05T04:03:59;101925.72;;;-5.92;86.05
59073;BME280;44859;51.934;15.554;2023-02-05T04:06:35;101922.72;;;-5.98;85.97
59073;BME280;44859;51.934;15.554;2023-02-05T04:09:16;101917.61;;;-6.00;86.07
59073;BME280;44859;51.934;15.554;2023-02-05T04:12:01;101916.13;;;-6.02;86.53
59073;BME280;44859;51.934;15.554;2023-02-05T04:14:31;101915.27;;;-6.06;86.74
59073;BME280;44859;51.934;15.554;2023-02-05T04:17:38;101921.32;;;-6.14;86.48
59073;BME280;44859;51.934;15.554;2023-02-05T04:20:22;101927.38;;;-6.23;86.54
59073;BME280;44859;51.934;15.554;2023-02-05T04:23:01;101929.66;;;-6.28;86.69
59073;BME280;44859;51.934;15.554;2023-02-05T04:25:51;101930.92;;;-6.30;86.82
59073;BME280;44859;51.934;15.554;2023-02-05T04:28:35;101931.28;;;-6.29;87.03
59073;BME280;44859;51.934;15.554;2023-02-05T04:31:21;101933.30;;;-6.30;87.08
59073;BME280;44859;51.934;15.554;2023-02-05T04:34:07;101932.65;;;-6.30;87.32
59073;BME280;44859;51.934;15.554;2023-02-05T04:36:51;101928.04;;;-6.33;87.54
59073;BME280;44859;51.934;15.554;2023-02-05T04:39:22;101928.22;;;-6.36;87.40
59073;BME280;44859;51.934;15.554;2023-02-05T04:42:08;101932.73;;;-6.40;87.48
59073;BME280;44859;51.934;15.554;2023-02-05T04:44:49;101930.66;;;-6.47;87.56
59073;BME280;44859;51.934;15.554;2023-02-05T04:47:23;101934.41;;;-6.54;87.61
59073;BME280;44859;51.934;15.554;2023-02-05T04:49:54;101942.60;;;-6.60;87.54
59073;BME280;44859;51.934;15.554;2023-02-05T04:52:37;101946.99;;;-6.64;87.74
59073;BME280;44859;51.934;15.554;2023-02-05T04:55:17;101945.44;;;-6.68;87.85
59073;BME280;44859;51.934;15.554;2023-02-05T04:57:53;101947.84;;;-6.71;88.32
59073;BME280;44859;51.934;15.554;2023-02-05T05:00:34;101950.02;;;-6.71;88.06
59073;BME280;44859;51.934;15.554;2023-02-05T05:03:11;101952.95;;;-6.74;88.41
59073;BME280;44859;51.934;15.554;2023-02-05T05:05:42;101959.98;;;-6.76;88.47
59073;BME280;44859;51.934;15.554;2023-02-05T05:08:20;101967.23;;;-6.78;88.20
59073;BME280;44859;51.934;15.554;2023-02-05T05:10:51;101969.98;;;-6.78;88.54
59073;BME280;44859;51.934;15.554;2023-02-05T05:13:24;101968.34;;;-6.77;88.66
59073;BME280;44859;51.934;15.554;2023-02-05T05:16:06;101963.52;;;-6.75;88.87
59073;BME280;44859;51.934;15.554;2023-02-05T05:18:39;101964.95;;;-6.70;89.18
59073;BME280;44859;51.934;15.554;2023-02-05T05:21:14;101966.36;;;-6.66;88.99
59073;BME280;44859;51.934;15.554;2023-02-05T05:23:45;101958.44;;;-6.65;89.07
59073;BME280;44859;51.934;15.554;2023-02-05T05:26:28;101955.38;;;-6.64;89.08
59073;BME280;44859;51.934;15.554;2023-02-05T05:29:06;101949.89;;;-6.62;89.19
59073;BME280;44859;51.934;15.554;2023-02-05T05:31:58;101947.34;;;-6.58;89.53
59073;BME280;44859;51.934;15.554;2023-02-05T05:34:50;101943.34;;;-6.56;89.49
59073;BME280;44859;51.934;15.554;2023-02-05T05:37:30;101939.54;;;-6.60;89.66
59073;BME280;44859;51.934;15.554;2023-02-05T05:40:06;101946.25;;;-6.65;89.56
59073;BME280;44859;51.934;15.554;2023-02-05T05:43:00;101945.16;;;-6.73;89.85
59073;BME280;44859;51.934;15.554;2023-02-05T05:45:58;101943.05;;;-6.80;89.91
59073;BME280;44859;51.934;15.554;2023-02-05T05:48:32;101944.54;;;-6.84;89.62
59073;BME280;44859;51.934;15.554;2023-02-05T05:51:13;101948.05;;;-6.89;89.72
59073;BME280;44859;51.934;15.554;2023-02-05T05:53:49;101948.35;;;-6.93;90.02
59073;BME280;44859;51.934;15.554;2023-02-05T05:56:28;101948.98;;;-6.96;90.01
59073;BME280;44859;51.934;15.554;2023-02-05T05:59:00;101949.98;;;-7.00;89.95
59073;BME280;44859;51.934;15.554;2023-02-05T06:01:39;101946.16;;;-7.00;90.22
59073;BME280;44859;51.934;15.554;2023-02-05T06:04:10;101941.83;;;-7.02;90.18
59073;BME280;44859;51.934;15.554;2023-02-05T06:06:41;101944.14;;;-7.03;90.26
59073;BME280;44859;51.934;15.554;2023-02-05T06:09:19;101947.40;;;-7.03;90.47
59073;BME280;44859;51.934;15.554;2023-02-05T06:11:59;101951.96;;;-7.04;90.34
59073;BME280;44859;51.934;15.554;2023-02-05T06:14:27;101952.08;;;-7.05;90.71
59073;BME280;44859;51.934;15.554;2023-02-05T06:17:00;101958.25;;;-7.07;90.52
59073;BME280;44859;51.934;15.554;2023-02-05T06:19:39;101960.77;;;-7.08;90.71
59073;BME280;44859;51.934;15.554;2023-02-05T06:22:16;101962.36;;;-7.07;90.70
59073;BME280;44859;51.934;15.554;2023-02-05T06:24:55;101964.73;;;-7.05;91.01
59073;BME280;44859;51.934;15.554;2023-02-05T06:27:30;101969.62;;;-7.06;91.00
59073;BME280;44859;51.934;15.554;2023-02-05T06:30:00;101971.61;;;-7.07;90.87
59073;BME280;44859;51.934;15.554;2023-02-05T06:32:32;101973.68;;;-7.06;91.16
59073;BME280;44859;51.934;15.554;2023-02-05T06:35:04;101974.16;;;-7.04;91.29
59073;BME280;44859;51.934;15.554;2023-02-05T06:37:49;101980.38;;;-7.00;91.61
59073;BME280;44859;51.934;15.554;2023-02-05T06:40:34;101983.39;;;-6.95;91.53
59073;BME280;44859;51.934;15.554;2023-02-05T06:43:09;101980.77;;;-6.90;91.64
59073;BME280;44859;51.934;15.554;2023-02-05T06:45:38;101983.85;;;-6.87;91.66
59073;BME280;44859;51.934;15.554;2023-02-05T06:48:13;101988.55;;;-6.85;91.62
59073;BME280;44859;51.934;15.554;2023-02-05T06:51:32;101989.38;;;-6.89;91.97
59073;BME280;44859;51.934;15.554;2023-02-05T06:54:07;101999.04;;;-6.90;92.13
59073;BME280;44859;51.934;15.554;2023-02-05T06:56:36;101998.35;;;-6.90;92.05
59073;BME280;44859;51.934;15.554;2023-02-05T06:59:09;102000.48;;;-6.89;91.83
59073;BME280;44859;51.934;15.554;2023-02-05T07:01:40;102004.61;;;-6.82;92.05
59073;BME280;44859;51.934;15.554;2023-02-05T07:04:09;102001.76;;;-6.78;92.08
59073;BME280;44859;51.934;15.554;2023-02-05T07:06:37;102000.04;;;-6.75;92.17
59073;BME280;44859;51.934;15.554;2023-02-05T07:09:06;101999.84;;;-6.73;92.21
59073;BME280;44859;51.934;15.554;2023-02-05T07:11:35;101994.90;;;-6.70;92.37
59073;BME280;44859;51.934;15.554;2023-02-05T07:14:23;101995.42;;;-6.63;92.37
59073;BME280;44859;51.934;15.554;2023-02-05T07:17:38;102003.72;;;-6.53;92.54
59073;BME280;44859;51.934;15.554;2023-02-05T07:20:14;102005.04;;;-6.44;92.64
59073;BME280;44859;51.934;15.554;2023-02-05T07:22:46;102008.45;;;-6.35;93.06
59073;BME280;44859;51.934;15.554;2023-02-05T07:25:14;102010.80;;;-6.26;93.10
59073;BME280;44859;51.934;15.554;2023-02-05T07:27:44;102012.85;;;-6.17;92.95
59073;BME280;44859;51.934;15.554;2023-02-05T07:30:16;102006.78;;;-6.06;93.21
59073;BME280;44859;51.934;15.554;2023-02-05T07:32:48;102008.74;;;-5.94;93.50
59073;BME280;44859;51.934;15.554;2023-02-05T07:35:23;102010.09;;;-5.79;93.63
59073;BME280;44859;51.934;15.554;2023-02-05T07:37:52;102006.26;;;-5.60;93.79
59073;BME280;44859;51.934;15.554;2023-02-05T07:40:21;102006.81;;;-5.47;93.78
59073;BME280;44859;51.934;15.554;2023-02-05T07:42:50;102003.80;;;-5.35;93.77
59073;BME280;44859;51.934;15.554;2023-02-05T07:45:21;102010.68;;;-5.21;93.65
59073;BME280;44859;51.934;15.554;2023-02-05T07:47:49;102013.30;;;-5.07;93.87
59073;BME280;44859;51.934;15.554;2023-02-05T07:50:19;102017.64;;;-4.92;93.94
59073;BME280;44859;51.934;15.554;2023-02-05T07:52:49;102016.61;;;-4.74;94.25
59073;BME280;44859;51.934;15.554;2023-02-05T07:55:17;102019.59;;;-4.55;94.35
59073;BME280;44859;51.934;15.554;2023-02-05T07:57:49;102016.04;;;-4.36;94.21
59073;BME280;44859;51.934;15.554;2023-02-05T08:00:17;102010.44;;;-4.16;94.40
59073;BME280;44859;51.934;15.554;2023-02-05T08:02:49;102010.80;;;-3.94;94.22
59073;BME280;44859;51.934;15.554;2023-02-05T08:05:18;102012.65;;;-3.72;94.03
59073;BME280;44859;51.934;15.554;2023-02-05T08:07:47;102010.82;;;-3.51;93.48
59073;BME280;44859;51.934;15.554;2023-02-05T08:10:16;102003.17;;;-3.34;93.11
59073;BME280;44859;51.934;15.554;2023-02-05T08:12:45;102001.62;;;-3.18;92.61
59073;BME280;44859;51.934;15.554;2023-02-05T08:15:15;101999.59;;;-3.09;92.15
59073;BME280;44859;51.934;15.554;2023-02-05T08:17:44;102004.61;;;-3.00;91.75
59073;BME280;44859;51.934;15.554;2023-02-05T08:20:12;102000.39;;;-2.90;91.46
59073;BME280;44859;51.934;15.554;2023-02-05T08:22:42;102003.56;;;-2.80;90.83
59073;BME280;44859;51.934;15.554;2023-02-05T08:25:13;102004.70;;;-2.73;90.39
59073;BME280;44859;51.934;15.554;2023-02-05T08:28:03;102009.54;;;-2.76;89.91
59073;BME280;44859;51.934;15.554;2023-02-05T08:30:49;102013.38;;;-2.79;89.59
59073;BME280;44859;51.934;15.554;2023-02-05T08:34:06;102009.81;;;-2.70;89.66
59073;BME280;44859;51.934;15.554;2023-02-05T08:36:35;102009.20;;;-2.63;89.29
59073;BME280;44859;51.934;15.554;2023-02-05T08:39:04;102008.48;;;-2.60;88.66
59073;BME280;44859;51.934;15.554;2023-02-05T08:41:36;102005.99;;;-2.58;88.29
59073;BME280;44859;51.934;15.554;2023-02-05T08:44:11;102004.55;;;-2.64;87.76
59073;BME280;44859;51.934;15.554;2023-02-05T08:46:43;102003.77;;;-2.70;87.36
59073;BME280;44859;51.934;15.554;2023-02-05T08:49:17;101998.38;;;-2.76;87.25
59073;BME280;44859;51.934;15.554;2023-02-05T08:51:47;102001.85;;;-2.79;87.01
59073;BME280;44859;51.934;15.554;2023-02-05T08:54:15;102006.45;;;-2.77;86.78
59073;BME280;44859;51.934;15.554;2023-02-05T08:56:46;102002.96;;;-2.77;86.90
59073;BME280;44859;51.934;15.554;2023-02-05T08:59:45;101992.09;;;-2.74;86.36
59073;BME280;44859;51.934;15.554;2023-02-05T09:02:26;101989.63;;;-2.67;86.58
59073;BME280;44859;51.934;15.554;2023-02-05T09:04:58;101987.52;;;-2.55;86.61
59073;BME280;44859;51.934;15.554;2023-02-05T09:07:40;101979.39;;;-2.47;86.52
59073;BME280;44859;51.934;15.554;2023-02-05T09:10:10;101977.16;;;-2.43;86.21
59073;BME280;44859;51.934;15.554;2023-02-05T09:12:40;101973.55;;;-2.38;86.18
59073;BME280;44859;51.934;15.554;2023-02-05T09:15:10;101974.48;;;-2.37;86.33
59073;BME280;44859;51.934;15.554;2023-02-05T09:17:42;101982.42;;;-2.44;86.42
59073;BME280;44859;51.934;15.554;2023-02-05T09:20:12;101986.16;;;-2.50;86.37
59073;BME280;44859;51.934;15.554;2023-02-05T09:22:50;101982.71;;;-2.55;86.20
59073;BME280;44859;51.934;15.554;2023-02-05T09:25:25;101980.21;;;-2.53;86.08
59073;BME280;44859;51.934;15.554;2023-02-05T09:27:56;101973.54;;;-2.52;85.90
59073;BME280;44859;51.934;15.554;2023-02-05T09:30:27;101972.55;;;-2.50;85.98
59073;BME280;44859;51.934;15.554;2023-02-05T09:32:56;101973.17;;;-2.47;85.90
59073;BME280;44859;51.934;15.554;2023-02-05T09:35:24;101972.91;;;-2.45;85.80
59073;BME280;44859;51.934;15.554;2023-02-05T09:37:53;101968.55;;;-2.43;85.81
59073;BME280;44859;51.934;15.554;2023-02-05T09:40:24;101974.96;;;-2.37;85.85
59073;BME280;44859;51.934;15.554;2023-02-05T09:45:59;101977.75;;;-2.28;85.55
59073;BME280;44859;51.934;15.554;2023-02-05T09:52:06;101974.58;;;-2.25;85.03
59073;BME280;44859;51.934;15.554;2023-02-05T09:54:54;101971.95;;;-2.22;85.03
59073;BME280;44859;51.934;15.554;2023-02-05T09:57:40;101973.35;;;-2.22;85.07
59073;BME280;44859;51.934;15.554;2023-02-05T10:00:24;101970.27;;;-2.16;84.82
59073;BME280;44859;51.934;15.554;2023-02-05T10:03:16;101965.52;;;-2.14;84.56
59073;BME280;44859;51.934;15.554;2023-02-05T10:06:14;101971.94;;;-2.18;84.47
59073;BME280;44859;51.934;15.554;2023-02-05T10:09:03;101974.44;;;-2.15;84.64
59073;BME280;44859;51.934;15.554;2023-02-05T10:11:50;101967.92;;;-2.14;83.96
59073;BME280;44859;51.934;15.554;2023-02-05T10:14:59;101970.44;;;-2.17;83.84
59073;BME280;44859;51.934;15.554;2023-02-05T10:26:42;101964.19;;;-2.13;83.05
59073;BME280;44859;51.934;15.554;2023-02-05T10:32:58;101959.30;;;-2.06;82.45
59073;BME280;44859;51.934;15.554;2023-02-05T10:35:58;101962.92;;;-1.96;82.60
59073;BME280;44859;51.934;15.554;2023-02-05T10:38:49;101965.15;;;-1.87;81.74
59073;BME280;44859;51.934;15.554;2023-02-05T10:41:44;101958.15;;;-1.90;81.43
59073;BME280;44859;51.934;15.554;2023-02-05T10:44:28;101953.69;;;-1.85;81.33
59073;BME280;44859;51.934;15.554;2023-02-05T10:47:10;101952.19;;;-1.88;81.38
59073;BME280;44859;51.934;15.554;2023-02-05T10:49:52;101952.36;;;-1.88;80.76
59073;BME280;44859;51.934;15.554;2023-02-05T10:52:37;101947.23;;;-1.78;80.33
59073;BME280;44859;51.934;15.554;2023-02-05T10:55:15;101948.25;;;-1.64;80.33
59073;BME280;44859;51.934;15.554;2023-02-05T10:57:47;101951.59;;;-1.57;80.32
59073;BME280;44859;51.934;15.554;2023-02-05T11:00:25;101948.57;;;-1.59;79.65
59073;BME280;44859;51.934;15.554;2023-02-05T11:02:57;101942.62;;;-1.62;79.66
59073;BME280;44859;51.934;15.554;2023-02-05T11:05:53;101945.82;;;-1.59;79.71
59073;BME280;44859;51.934;15.554;2023-02-05T11:08:40;101948.03;;;-1.51;79.37
59073;BME280;44859;51.934;15.554;2023-02-05T11:11:25;101941.05;;;-1.43;79.44
59073;BME280;44859;51.934;15.554;2023-02-05T11:14:00;101934.36;;;-1.37;79.13
59073;BME280;44859;51.934;15.554;2023-02-05T11:16:43;101929.52;;;-1.37;79.02
59073;BME280;44859;51.934;15.554;2023-02-05T11:19:23;101930.80;;;-1.35;78.32
59073;BME280;44859;51.934;15.554;2023-02-05T11:22:24;101932.67;;;-1.40;77.76
59073;BME280;44859;51.934;15.554;2023-02-05T11:25:19;101929.02;;;-1.37;77.57
59073;BME280;44859;51.934;15.554;2023-02-05T11:27:59;101924.91;;;-1.31;77.14
59073;BME280;44859;51.934;15.554;2023-02-05T11:30:47;101926.40;;;-1.28;76.60
59073;BME280;44859;51.934;15.554;2023-02-05T11:36:30;101918.41;;;-1.35;76.44
59073;BME280;44859;51.934;15.554;2023-02-05T11:38:58;101914.06;;;-1.30;76.37
59073;BME280;44859;51.934;15.554;2023-02-05T11:41:38;101916.95;;;-1.27;76.24
59073;BME280;44859;51.934;15.554;2023-02-05T11:44:29;101914.01;;;-1.17;76.12
59073;BME280;44859;51.934;15.554;2023-02-05T11:47:39;101913.39;;;-1.10;75.94
59073;BME280;44859;51.934;15.554;2023-02-05T11:50:32;101907.41;;;-1.18;75.28
59073;BME280;44859;51.934;15.554;2023-02-05T11:53:10;101904.33;;;-1.13;75.28
59073;BME280;44859;51.934;15.554;2023-02-05T11:55:52;101901.83;;;-1.15;74.95
59073;BME280;44859;51.934;15.554;2023-02-05T11:58:30;101902.40;;;-1.14;75.09
59073;BME280;44859;51.934;15.554;2023-02-05T12:01:21;101903.46;;;-1.18;74.88
59073;BME280;44859;51.934;15.554;2023-02-05T12:04:13;101900.73;;;-1.17;74.78
59073;BME280;44859;51.934;15.554;2023-02-05T12:07:06;101900.89;;;-1.12;74.57
59073;BME280;44859;51.934;15.554;2023-02-05T12:09:58;101903.66;;;-1.12;74.54
59073;BME280;44859;51.934;15.554;2023-02-05T12:12:39;101902.58;;;-1.08;75.27
59073;BME280;44859;51.934;15.554;2023-02-05T12:15:43;101907.06;;;-1.08;75.59
59073;BME280;44859;51.934;15.554;2023-02-05T12:21:50;101906.67;;;-1.14;74.64
59073;BME280;44859;51.934;15.554;2023-02-05T12:30:35;101908.84;;;-1.27;73.26
59073;BME280;44859;51.934;15.554;2023-02-05T12:33:25;101908.73;;;-1.30;73.52
59073;BME280;44859;51.934;15.554;2023-02-05T12:45:50;101905.55;;;-1.17;73.24
59073;BME280;44859;51.934;15.554;2023-02-05T12:51:42;101902.95;;;-1.18;73.19
59073;BME280;44859;51.934;15.554;2023-02-05T12:57:52;101889.56;;;-1.16;73.40
59073;BME280;44859;51.934;15.554;2023-02-05T13:00:44;101887.73;;;-1.19;73.47
59073;BME280;44859;51.934;15.554;2023-02-05T13:06:28;101882.88;;;-1.20;73.11
59073;BME280;44859;51.934;15.554;2023-02-05T13:09:28;101881.70;;;-1.08;73.15
59073;BME280;44859;51.934;15.554;2023-02-05T13:12:04;101880.33;;;-0.92;72.82
59073;BME280;44859;51.934;15.554;2023-02-05T13:14:59;101880.21;;;-0.90;72.78
59073;BME280;44859;51.934;15.554;2023-02-05T13:20:29;101887.10;;;-1.01;72.13
59073;BME280;44859;51.934;15.554;2023-02-05T13:23:28;101887.75;;;-1.08;72.40
59073;BME280;44859;51.934;15.554;2023-02-05T13:26:22;101881.08;;;-1.12;71.82
59073;BME280;44859;51.934;15.554;2023-02-05T13:29:27;101881.98;;;-1.16;71.57
59073;BME280;44859;51.934;15.554;2023-02-05T13:32:18;101877.98;;;-1.21;71.70
59073;BME280;44859;51.934;15.554;2023-02-05T13:35:02;101876.47;;;-1.31;71.18
59073;BME280;44859;51.934;15.554;2023-02-05T13:38:03;101873.77;;;-1.30;71.51
59073;BME280;44859;51.934;15.554;2023-02-05T13:47:52;101883.85;;;-0.95;71.36
59073;BME280;44859;51.934;15.554;2023-02-05T14:01:58;101899.79;;;-0.87;71.20
59073;BME280;44859;51.934;15.554;2023-02-05T14:04:45;101902.02;;;-0.93;71.10
59073;BME280;44859;51.934;15.554;2023-02-05T14:07:34;101900.95;;;-0.94;71.31
59073;BME280;44859;51.934;15.554;2023-02-05T14:10:40;101903.95;;;-0.97;71.03
59073;BME280;44859;51.934;15.554;2023-02-05T14:13:30;101900.05;;;-1.06;71.03
59073;BME280;44859;51.934;15.554;2023-02-05T14:21:56;101918.67;;;-1.22;70.60
59073;BME280;44859;51.934;15.554;2023-02-05T14:24:43;101913.88;;;-1.26;70.25
59073;BME280;44859;51.934;15.554;2023-02-05T14:29:53;101906.70;;;-1.29;69.98
59073;BME280;44859;51.934;15.554;2023-02-05T14:35:32;101915.36;;;-1.33;70.55
59073;BME280;44859;51.934;15.554;2023-02-05T14:41:13;101902.68;;;-1.31;70.64
59073;BME280;44859;51.934;15.554;2023-02-05T14:43:44;101905.58;;;-1.32;71.07
59073;BME280;44859;51.934;15.554;2023-02-05T14:49:40;101902.89;;;-1.39;71.35
59073;BME280;44859;51.934;15.554;2023-02-05T14:52:40;101905.72;;;-1.43;71.32
59073;BME280;44859;51.934;15.554;2023-02-05T14:55:39;101909.25;;;-1.46;71.27
59073;BME280;44859;51.934;15.554;2023-02-05T14:58:27;101916.42;;;-1.48;71.18
59073;BME280;44859;51.934;15.554;2023-02-05T15:04:46;101927.90;;;-1.45;71.47
59073;BME280;44859;51.934;15.554;2023-02-05T15:07:39;101933.25;;;-1.44;71.55
59073;BME280;44859;51.934;15.554;2023-02-05T15:10:14;101933.28;;;-1.48;71.86
59073;BME280;44859;51.934;15.554;2023-02-05T15:13:13;101926.75;;;-1.58;71.57
59073;BME280;44859;51.934;15.554;2023-02-05T15:16:20;101934.77;;;-1.60;71.63
59073;BME280;44859;51.934;15.554;2023-02-05T15:19:04;101932.89;;;-1.59;71.76
59073;BME280;44859;51.934;15.554;2023-02-05T15:21:45;101932.70;;;-1.60;71.85
59073;BME280;44859;51.934;15.554;2023-02-05T15:24:21;101934.45;;;-1.60;71.82
59073;BME280;44859;51.934;15.554;2023-02-05T15:26:59;101922.45;;;-1.63;71.99
59073;BME280;44859;51.934;15.554;2023-02-05T15:29:50;101913.49;;;-1.67;72.06
59073;BME280;44859;51.934;15.554;2023-02-05T15:32:44;101912.59;;;-1.73;72.22
59073;BME280;44859;51.934;15.554;2023-02-05T15:35:28;101912.89;;;-1.74;72.34
59073;BME280;44859;51.934;15.554;2023-02-05T15:38:34;101913.58;;;-1.75;72.42
59073;BME280;44859;51.934;15.554;2023-02-05T15:41:12;101918.36;;;-1.81;72.59
59073;BME280;44859;51.934;15.554;2023-02-05T15:44:00;101922.05;;;-1.88;72.80
59073;BME280;44859;51.934;15.554;2023-02-05T15:46:31;101927.54;;;-1.94;72.66